createdAt,value
2023-01-05T00:01:31.434Z,9.58
2023-01-05T00:03:59.622Z,9.62
2023-01-05T00:06:27.780Z,9.58
2023-01-05T00:08:57.143Z,9.62
2023-01-05T00:11:55.267Z,9.62
2023-01-05T00:14:42.288Z,9.60
2023-01-05T00:17:29.714Z,9.68
2023-01-05T00:20:15.347Z,9.68
2023-01-05T00:22:46.335Z,9.68
2023-01-05T00:25:17.635Z,9.69
2023-01-05T00:27:48.079Z,9.73
2023-01-05T00:30:18.054Z,9.70
2023-01-05T00:32:46.999Z,9.70
2023-01-05T00:35:16.177Z,9.72
2023-01-05T00:37:45.523Z,9.69
2023-01-05T00:40:17.319Z,9.66
2023-01-05T00:42:46.172Z,9.66
2023-01-05T00:45:15.919Z,9.66
2023-01-05T00:47:45.222Z,9.68
2023-01-05T00:50:15.227Z,9.64
2023-01-05T00:52:43.658Z,9.70
2023-01-05T00:55:15.268Z,9.73
2023-01-05T00:57:43.673Z,9.77
2023-01-05T01:00:15.023Z,9.73
2023-01-05T01:02:43.171Z,9.79
2023-01-05T01:05:12.257Z,9.77
2023-01-05T01:07:40.295Z,9.80
2023-01-05T01:10:09.437Z,9.82
2023-01-05T01:12:38.958Z,9.81
2023-01-05T01:15:08.942Z,9.77
2023-01-05T01:17:37.134Z,9.73
2023-01-05T01:20:06.481Z,9.70
2023-01-05T01:22:34.611Z,9.66
2023-01-05T01:25:02.662Z,9.66
2023-01-05T01:27:31.192Z,9.61
2023-01-05T01:30:00.599Z,9.63
2023-01-05T01:32:28.766Z,9.62
2023-01-05T01:34:56.841Z,9.63
2023-01-05T01:37:24.961Z,9.60
2023-01-05T01:39:55.740Z,9.60
2023-01-05T01:42:24.034Z,9.58
2023-01-05T01:45:00.499Z,9.56
2023-01-05T01:47:39.880Z,9.59
2023-01-05T01:50:14.396Z,9.62
2023-01-05T01:52:43.065Z,9.67
2023-01-05T01:55:11.757Z,9.67
2023-01-05T01:57:40.084Z,9.66
2023-01-05T02:00:14.729Z,9.63
2023-01-05T02:02:46.765Z,9.66
2023-01-05T02:05:18.634Z,9.69
2023-01-05T02:07:48.455Z,9.65
2023-01-05T02:10:18.086Z,9.66
2023-01-05T02:12:59.560Z,9.63
2023-01-05T02:15:37.374Z,9.62
2023-01-05T02:18:21.228Z,9.60
2023-01-05T02:21:16.903Z,9.65
2023-01-05T02:24:36.113Z,9.65
2023-01-05T02:27:28.347Z,9.67
2023-01-05T02:30:20.028Z,9.71
2023-01-05T02:32:56.354Z,9.65
2023-01-05T02:35:30.808Z,9.73
2023-01-05T02:38:04.460Z,9.69
2023-01-05T02:40:36.698Z,9.66
2023-01-05T02:43:06.764Z,9.64
2023-01-05T02:45:35.396Z,9.63
2023-01-05T02:48:05.818Z,9.62
2023-01-05T02:50:37.867Z,9.64
2023-01-05T02:53:15.440Z,9.69
2023-01-05T02:55:47.813Z,9.65
2023-01-05T02:58:19.079Z,9.68
2023-01-05T03:00:49.539Z,9.72
2023-01-05T03:03:23.563Z,9.75
2023-01-05T03:05:56.595Z,9.74
2023-01-05T03:08:32.416Z,9.75
2023-01-05T03:11:23.004Z,9.77
2023-01-05T03:13:54.146Z,9.83
2023-01-05T03:16:25.926Z,9.82
2023-01-05T03:19:12.210Z,9.82
2023-01-05T03:21:58.015Z,9.90
2023-01-05T03:24:44.181Z,9.87
2023-01-05T03:27:33.062Z,9.85
2023-01-05T03:30:19.871Z,9.85
2023-01-05T03:33:09.457Z,9.90
2023-01-05T03:35:42.555Z,9.90
2023-01-05T03:38:18.363Z,9.92
2023-01-05T03:40:52.177Z,9.94
2023-01-05T03:43:21.372Z,9.90
2023-01-05T03:45:54.126Z,9.95
2023-01-05T03:48:27.286Z,9.97
2023-01-05T03:50:57.063Z,9.96
2023-01-05T03:53:26.987Z,9.91
2023-01-05T03:55:55.416Z,9.91
2023-01-05T03:58:25.759Z,9.93
2023-01-05T04:00:54.099Z,9.90
2023-01-05T04:03:31.080Z,9.96
2023-01-05T04:06:02.548Z,9.94
2023-01-05T04:08:32.660Z,9.95
2023-01-05T04:11:12.553Z,9.95
2023-01-05T04:13:40.846Z,9.93
2023-01-05T04:16:09.473Z,9.91
2023-01-05T04:18:39.777Z,9.91
2023-01-05T04:21:11.890Z,9.91
2023-01-05T04:23:40.969Z,9.92
2023-01-05T04:26:10.203Z,9.94
2023-01-05T04:28:39.183Z,9.95
2023-01-05T04:31:07.514Z,9.91
2023-01-05T04:33:36.475Z,9.87
2023-01-05T04:36:05.651Z,9.87
2023-01-05T04:38:35.175Z,9.82
2023-01-05T04:41:03.511Z,9.81
2023-01-05T04:43:31.602Z,9.82
2023-01-05T04:46:02.222Z,9.82
2023-01-05T04:52:28.121Z,9.86
2023-01-05T04:54:58.011Z,9.86
2023-01-05T04:57:27.978Z,9.89
2023-01-05T04:59:56.663Z,9.91
2023-01-05T05:02:26.405Z,9.93
2023-01-05T05:04:55.409Z,9.93
2023-01-05T05:07:23.879Z,9.92
2023-01-05T05:09:52.254Z,9.94
2023-01-05T05:12:22.048Z,9.94
2023-01-05T05:14:53.037Z,9.97
2023-01-05T05:17:21.300Z,9.96
2023-01-05T05:19:51.094Z,10.01
2023-01-05T05:22:22.020Z,10.03
2023-01-05T05:24:50.539Z,9.97
2023-01-05T05:27:18.865Z,10.00
2023-01-05T05:29:48.397Z,10.05
2023-01-05T05:32:17.025Z,10.06
2023-01-05T05:34:45.149Z,10.06
2023-01-05T05:37:13.555Z,10.09
2023-01-05T05:39:41.728Z,10.12
2023-01-05T05:42:09.920Z,10.16
2023-01-05T05:44:38.043Z,10.17
2023-01-05T05:47:07.577Z,10.18
2023-01-05T05:49:35.865Z,10.18
2023-01-05T05:52:04.254Z,10.23
2023-01-05T05:54:32.376Z,10.19
2023-01-05T05:57:00.508Z,10.22
2023-01-05T05:59:28.685Z,10.22
2023-01-05T06:01:56.909Z,10.21
2023-01-05T06:04:26.413Z,10.18
2023-01-05T06:06:54.495Z,10.22
2023-01-05T06:09:22.584Z,10.19
2023-01-05T06:11:50.629Z,10.19
2023-01-05T06:14:18.945Z,10.18
2023-01-05T06:16:47.216Z,10.18
2023-01-05T06:19:15.351Z,10.17
2023-01-05T06:21:44.795Z,10.15
2023-01-05T06:24:12.958Z,10.17
2023-01-05T06:26:41.082Z,10.12
2023-01-05T06:29:09.196Z,10.13
2023-01-05T06:31:37.304Z,10.11
2023-01-05T06:34:05.571Z,10.11
2023-01-05T06:36:33.800Z,10.12
2023-01-05T06:39:03.661Z,10.16
2023-01-05T06:41:31.790Z,10.19
2023-01-05T06:43:59.947Z,10.16
2023-01-05T06:46:28.044Z,10.08
2023-01-05T06:48:57.141Z,10.04
2023-01-05T06:51:25.303Z,9.96
2023-01-05T06:53:53.360Z,9.97
2023-01-05T06:56:22.796Z,9.98
2023-01-05T06:58:50.885Z,9.98
2023-01-05T07:01:19.678Z,9.99
2023-01-05T07:03:47.925Z,10.02
2023-01-05T07:06:17.006Z,10.00
2023-01-05T07:08:45.151Z,9.99
2023-01-05T07:11:13.933Z,10.00
2023-01-05T07:13:43.668Z,9.98
2023-01-05T07:16:11.790Z,9.99
2023-01-05T07:18:39.891Z,10.02
2023-01-05T07:21:08.071Z,10.04
2023-01-05T07:23:37.953Z,10.03
2023-01-05T07:26:06.572Z,10.04
2023-01-05T07:28:35.124Z,10.03
2023-01-05T07:31:07.424Z,10.01
2023-01-05T07:33:39.988Z,9.98
2023-01-05T07:36:09.528Z,9.93
2023-01-05T07:38:37.642Z,9.93
2023-01-05T07:41:05.992Z,9.95
2023-01-05T07:43:35.677Z,9.96
2023-01-05T07:46:05.964Z,10.00
2023-01-05T07:48:34.556Z,10.06
2023-01-05T07:51:03.416Z,10.05
2023-01-05T07:53:33.789Z,10.06
2023-01-05T07:56:03.983Z,10.06
2023-01-05T07:58:32.163Z,10.01
2023-01-05T08:01:06.241Z,9.91
2023-01-05T08:03:34.427Z,9.86
2023-01-05T08:06:06.016Z,9.85
2023-01-05T08:08:34.124Z,9.90
2023-01-05T08:11:04.907Z,9.93
2023-01-05T08:13:50.688Z,9.91
2023-01-05T08:16:20.659Z,9.91
2023-01-05T08:18:48.724Z,9.94
2023-01-05T08:21:16.819Z,9.95
2023-01-05T08:23:45.835Z,9.97
2023-01-05T08:26:16.123Z,9.98
2023-01-05T08:28:44.754Z,10.00
2023-01-05T08:31:15.332Z,9.97
2023-01-05T08:33:44.920Z,10.00
2023-01-05T08:36:15.179Z,9.98
2023-01-05T08:38:48.235Z,9.98
2023-01-05T08:41:20.864Z,9.95
2023-01-05T08:43:52.956Z,9.83
2023-01-05T08:46:22.276Z,9.68
2023-01-05T08:48:53.058Z,9.66
2023-01-05T08:51:21.409Z,9.60
2023-01-05T08:53:49.775Z,9.52
2023-01-05T08:56:18.233Z,9.50
2023-01-05T08:58:46.592Z,9.48
2023-01-05T09:01:16.588Z,9.51
2023-01-05T09:03:44.816Z,9.54
2023-01-05T09:06:15.182Z,9.46
2023-01-05T09:08:44.716Z,9.28
2023-01-05T09:11:14.611Z,9.22
2023-01-05T09:13:43.505Z,9.18
2023-01-05T09:16:13.036Z,9.09
2023-01-05T09:18:42.458Z,9.09
2023-01-05T09:21:10.893Z,9.10
2023-01-05T09:23:40.590Z,9.02
2023-01-05T09:26:11.529Z,8.97
2023-01-05T09:28:40.180Z,8.97
2023-01-05T09:31:10.175Z,8.95
2023-01-05T09:33:38.695Z,8.85
2023-01-05T09:36:07.894Z,8.85
2023-01-05T09:38:38.084Z,8.85
2023-01-05T09:41:17.631Z,8.92
2023-01-05T09:43:47.846Z,8.93
2023-01-05T09:46:19.280Z,8.86
2023-01-05T09:48:54.796Z,8.81
2023-01-05T09:51:23.300Z,8.75
2023-01-05T09:53:51.463Z,8.75
2023-01-05T09:57:07.350Z,8.85
2023-01-05T09:59:19.220Z,8.84
2023-01-05T10:01:49.149Z,8.86
2023-01-05T10:04:22.825Z,8.90
2023-01-05T10:06:58.831Z,9.02
2023-01-05T10:09:31.270Z,9.04
2023-01-05T10:12:21.624Z,8.96
2023-01-05T10:14:52.996Z,8.93
2023-01-05T10:20:18.989Z,8.95
2023-01-05T10:22:55.393Z,9.00
2023-01-05T10:25:28.943Z,9.02
2023-01-05T10:28:04.345Z,9.00
2023-01-05T10:30:44.231Z,9.07
2023-01-05T10:33:40.232Z,9.10
2023-01-05T10:36:28.098Z,9.04
2023-01-05T10:39:13.590Z,9.05
2023-01-05T10:41:51.835Z,9.00
2023-01-05T10:44:41.544Z,9.05
2023-01-05T10:47:10.262Z,9.07
2023-01-05T10:49:39.331Z,9.10
2023-01-05T10:52:10.213Z,9.19
2023-01-05T10:54:41.237Z,9.19
2023-01-05T10:57:36.552Z,9.21
2023-01-05T11:00:10.683Z,9.24
2023-01-05T11:02:40.149Z,9.31
2023-01-05T11:05:23.936Z,9.32
2023-01-05T11:07:53.218Z,9.28
2023-01-05T11:10:27.489Z,9.28
2023-01-05T11:13:01.527Z,9.25
2023-01-05T11:15:32.390Z,9.29
2023-01-05T11:18:00.779Z,9.31
2023-01-05T11:20:30.127Z,9.39
2023-01-05T11:22:58.346Z,9.41
2023-01-05T11:25:31.054Z,9.44
2023-01-05T11:28:12.838Z,9.50
2023-01-05T11:30:48.957Z,9.47
2023-01-05T11:33:25.846Z,9.55
2023-01-05T11:35:54.324Z,9.60
2023-01-05T11:38:25.453Z,9.58
2023-01-05T11:40:56.336Z,9.56
2023-01-05T11:43:26.011Z,9.57
2023-01-05T11:45:57.684Z,9.58
2023-01-05T11:48:28.811Z,9.56
2023-01-05T11:50:58.278Z,9.62
2023-01-05T11:53:35.496Z,9.64
2023-01-05T11:56:06.220Z,9.61
2023-01-05T11:58:35.431Z,9.70
2023-01-05T12:01:49.732Z,9.66
2023-01-05T12:04:35.884Z,9.63
2023-01-05T12:07:13.831Z,9.75
2023-01-05T12:09:45.211Z,9.70
2023-01-05T12:12:24.444Z,9.68
2023-01-05T12:15:06.292Z,9.66
2023-01-05T12:17:44.065Z,9.71
2023-01-05T12:20:27.043Z,9.72
2023-01-05T12:23:33.710Z,9.73
2023-01-05T12:26:05.598Z,9.81
2023-01-05T12:29:45.144Z,9.78
2023-01-05T12:33:44.503Z,9.76
2023-01-05T12:35:17.854Z,9.77
2023-01-05T12:37:56.944Z,9.68
2023-01-05T12:40:33.957Z,9.70
2023-01-05T12:43:03.612Z,9.67
2023-01-05T12:45:47.715Z,9.70
2023-01-05T12:48:18.899Z,9.68
2023-01-05T12:50:51.812Z,9.67
2023-01-05T12:53:30.628Z,9.59
2023-01-05T12:56:01.238Z,9.57
2023-01-05T12:58:32.585Z,9.51
2023-01-05T13:01:02.013Z,9.48
2023-01-05T13:03:34.849Z,9.46
2023-01-05T13:06:07.699Z,9.46
2023-01-05T13:08:39.852Z,9.51
2023-01-05T13:11:12.307Z,9.51
2023-01-05T13:13:42.903Z,9.53
2023-01-05T13:16:15.391Z,9.57
2023-01-05T13:18:50.026Z,9.59
2023-01-05T13:21:20.622Z,9.62
2023-01-05T13:23:51.386Z,9.60
2023-01-05T13:26:20.603Z,9.62
2023-01-05T13:28:49.363Z,9.64
2023-01-05T13:31:48.271Z,9.65
2023-01-05T13:34:32.091Z,9.60
2023-01-05T13:37:39.403Z,9.63
2023-01-05T13:40:22.250Z,9.61
2023-01-05T13:43:12.302Z,9.57
2023-01-05T13:46:01.825Z,9.58
2023-01-05T13:48:45.240Z,9.53
2023-01-05T13:51:37.606Z,9.59
2023-01-05T13:54:13.450Z,9.54
2023-01-05T13:56:41.924Z,9.52
2023-01-05T13:59:34.763Z,9.51
2023-01-05T14:02:27.502Z,9.49
2023-01-05T14:04:55.910Z,9.53
2023-01-05T14:07:24.323Z,9.50
2023-01-05T14:09:55.962Z,9.50
2023-01-05T14:12:55.195Z,9.50
2023-01-05T14:15:36.498Z,9.56
2023-01-05T14:18:05.720Z,9.52
2023-01-05T14:20:36.809Z,9.51
2023-01-05T14:23:43.748Z,9.54
2023-01-05T14:26:13.645Z,9.50
2023-01-05T14:28:44.537Z,9.51
2023-01-05T14:31:37.866Z,9.43
2023-01-05T14:34:09.645Z,9.46
2023-01-05T14:36:40.864Z,9.47
2023-01-05T14:39:23.416Z,9.52
2023-01-05T14:42:00.599Z,9.54
2023-01-05T14:44:32.174Z,9.52
2023-01-05T14:47:01.313Z,9.52
2023-01-05T14:49:33.279Z,9.53
2023-01-05T14:52:03.126Z,9.50
2023-01-05T14:55:24.279Z,9.49
2023-01-05T14:58:02.760Z,9.55
2023-01-05T15:00:38.311Z,9.46
2023-01-05T15:03:15.001Z,9.42
2023-01-05T15:05:46.840Z,9.41
2023-01-05T15:08:23.645Z,9.45
2023-01-05T15:11:11.067Z,9.45
2023-01-05T15:14:18.322Z,9.43
2023-01-05T15:17:14.330Z,9.41
2023-01-05T15:19:52.744Z,9.38
2023-01-05T15:22:38.067Z,9.42
2023-01-05T15:25:32.402Z,9.42
2023-01-05T15:28:53.547Z,9.40
2023-01-05T15:31:37.306Z,9.36
2023-01-05T15:34:15.130Z,9.30
2023-01-05T15:36:49.420Z,9.34
2023-01-05T15:39:25.812Z,9.29
2023-01-05T15:41:55.097Z,9.22
2023-01-05T15:44:25.511Z,9.19
2023-01-05T15:46:54.565Z,9.24
2023-01-05T15:49:25.363Z,9.16
2023-01-05T15:51:55.300Z,9.17
2023-01-05T15:54:25.705Z,9.14
2023-01-05T15:56:54.136Z,9.20
2023-01-05T15:59:32.456Z,9.16
2023-01-05T16:02:00.962Z,9.16
2023-01-05T16:04:29.342Z,9.14
2023-01-05T16:07:01.249Z,9.07
2023-01-05T16:09:33.391Z,9.14
2023-01-05T16:12:05.140Z,9.14
2023-01-05T16:14:36.760Z,9.14
2023-01-05T16:17:08.293Z,9.10
2023-01-05T16:19:41.526Z,9.08
2023-01-05T16:22:14.929Z,9.06
2023-01-05T16:24:47.013Z,9.10
2023-01-05T16:27:15.300Z,9.09
2023-01-05T16:29:47.136Z,9.09
2023-01-05T16:32:30.676Z,9.13
2023-01-05T16:35:21.166Z,9.11
2023-01-05T16:38:18.490Z,9.16
2023-01-05T16:41:09.139Z,9.07
2023-01-05T16:43:39.354Z,9.13
2023-01-05T16:46:30.867Z,9.13
2023-01-05T16:49:01.551Z,9.13
2023-01-05T16:51:41.555Z,9.15
2023-01-05T16:54:19.026Z,9.19
2023-01-05T16:56:58.153Z,9.14
2023-01-05T16:59:44.630Z,9.10
2023-01-05T17:02:49.023Z,9.13
2023-01-05T17:05:20.407Z,9.11
2023-01-05T17:07:50.289Z,9.12
2023-01-05T17:10:22.658Z,9.11
2023-01-05T17:12:57.229Z,9.05
2023-01-05T17:15:29.457Z,9.10
2023-01-05T17:17:59.131Z,9.08
2023-01-05T17:20:31.360Z,9.05
2023-01-05T17:22:59.488Z,9.06
2023-01-05T17:25:34.325Z,9.07
2023-01-05T17:28:02.386Z,9.04
2023-01-05T17:30:30.530Z,9.07
2023-01-05T17:32:59.941Z,9.07
2023-01-05T17:35:28.064Z,9.09
2023-01-05T17:37:56.139Z,9.08
2023-01-05T17:40:24.487Z,9.08
2023-01-05T17:42:52.708Z,9.02
2023-01-05T17:45:21.839Z,8.98
2023-01-05T17:47:50.549Z,9.05
2023-01-05T17:50:23.117Z,9.03
2023-01-05T17:52:51.425Z,9.01
2023-01-05T17:55:19.811Z,8.96
2023-01-05T17:57:48.482Z,8.93
2023-01-05T18:00:21.944Z,8.98
2023-01-05T18:02:51.316Z,8.96
2023-01-05T18:05:21.797Z,9.02
2023-01-05T18:07:50.625Z,8.95
2023-01-05T18:10:21.686Z,8.88
2023-01-05T18:12:50.041Z,8.90
2023-01-05T18:15:18.268Z,8.85
2023-01-05T18:17:46.416Z,8.87
2023-01-05T18:20:17.549Z,8.82
2023-01-05T18:22:49.425Z,8.93
2023-01-05T18:25:17.955Z,8.90
2023-01-05T18:27:46.016Z,8.92
2023-01-05T18:30:14.807Z,8.97
2023-01-05T18:32:43.479Z,8.94
2023-01-05T18:35:12.210Z,8.88
2023-01-05T18:37:41.140Z,8.94
2023-01-05T18:40:13.000Z,8.91
2023-01-05T18:42:41.178Z,8.94
2023-01-05T18:45:19.147Z,8.94
2023-01-05T18:47:48.126Z,8.94
2023-01-05T18:50:16.488Z,8.91
2023-01-05T18:52:44.725Z,8.92
2023-01-05T18:55:14.704Z,8.92
2023-01-05T18:57:42.937Z,8.92
2023-01-05T19:00:12.108Z,8.91
2023-01-05T19:02:41.216Z,8.89
2023-01-05T19:05:10.179Z,8.92
2023-01-05T19:07:39.760Z,8.87
2023-01-05T19:10:08.690Z,8.80
2023-01-05T19:12:38.249Z,8.75
2023-01-05T19:15:07.006Z,8.73
2023-01-05T19:17:35.131Z,8.81
2023-01-05T19:20:03.275Z,8.90
2023-01-05T19:22:31.671Z,8.78
2023-01-05T19:24:59.811Z,8.80
2023-01-05T19:27:28.531Z,8.83
2023-01-05T19:29:58.360Z,8.95
2023-01-05T19:32:26.537Z,9.02
2023-01-05T19:34:54.628Z,9.07
2023-01-05T19:37:22.767Z,9.11
2023-01-05T19:39:50.898Z,9.10
2023-01-05T19:42:18.946Z,9.06
2023-01-05T19:44:47.259Z,9.03
2023-01-05T19:47:16.761Z,9.08
2023-01-05T19:49:44.877Z,9.05
2023-01-05T19:52:13.849Z,9.03
2023-01-05T19:54:42.909Z,9.06
2023-01-05T19:57:11.148Z,9.04
2023-01-05T19:59:39.379Z,9.01
2023-01-05T20:02:07.895Z,8.98
2023-01-05T20:04:37.416Z,8.96
2023-01-05T20:07:10.107Z,8.95
2023-01-05T20:09:38.705Z,8.91
2023-01-05T20:12:14.546Z,8.92
2023-01-05T20:14:43.621Z,8.92
2023-01-05T20:17:12.724Z,8.93
2023-01-05T20:19:42.442Z,8.92
2023-01-05T20:22:13.787Z,8.87
2023-01-05T20:24:42.834Z,8.85
2023-01-05T20:27:13.318Z,8.84
2023-01-05T20:29:41.538Z,8.84
2023-01-05T20:32:12.717Z,8.84
2023-01-05T20:34:44.532Z,8.80
2023-01-05T20:37:12.997Z,8.79
2023-01-05T20:39:42.263Z,8.71
2023-01-05T20:42:11.817Z,8.68
2023-01-05T20:44:41.724Z,8.71
2023-01-05T20:47:10.467Z,8.71
2023-01-05T20:49:39.906Z,8.71
2023-01-05T20:52:10.685Z,8.67
2023-01-05T20:54:40.231Z,8.67
2023-01-05T20:57:09.089Z,8.67
2023-01-05T20:59:40.893Z,8.68
2023-01-05T21:02:22.481Z,8.69
2023-01-05T21:04:52.217Z,8.54
2023-01-05T21:07:22.240Z,8.55
2023-01-05T21:09:51.656Z,8.60
2023-01-05T21:12:20.353Z,8.63
2023-01-05T21:14:48.480Z,8.69
2023-01-05T21:17:16.653Z,8.69
2023-01-05T21:19:44.937Z,8.72
2023-01-05T21:22:13.461Z,8.72
2023-01-05T21:24:43.037Z,8.76
2023-01-05T21:27:11.161Z,8.79
2023-01-05T21:29:39.312Z,8.81
2023-01-05T21:32:07.677Z,8.58
2023-01-05T21:34:35.835Z,8.45
2023-01-05T21:37:04.148Z,8.52
2023-01-05T21:39:32.527Z,8.50
2023-01-05T21:42:19.803Z,8.54
2023-01-05T21:44:48.442Z,8.60
2023-01-05T21:47:16.943Z,8.66
2023-01-05T21:49:45.587Z,8.67
2023-01-05T21:52:30.538Z,8.69
2023-01-05T21:55:27.597Z,8.69
2023-01-05T21:57:57.142Z,8.72
2023-01-05T22:00:25.584Z,8.57
2023-01-05T22:02:53.831Z,8.62
2023-01-05T22:05:22.184Z,8.52
2023-01-05T22:07:50.289Z,8.44
2023-01-05T22:10:18.892Z,8.45
2023-01-05T22:12:47.051Z,8.52
2023-01-05T22:15:16.625Z,8.58
2023-01-05T22:17:44.696Z,8.49
2023-01-05T22:20:14.032Z,8.48
2023-01-05T22:22:42.178Z,8.52
2023-01-05T22:25:10.908Z,8.42
2023-01-05T22:27:39.112Z,8.37
2023-01-05T22:30:08.817Z,8.41
2023-01-05T22:32:39.036Z,8.37
2023-01-05T22:35:07.691Z,8.24
2023-01-05T22:37:35.878Z,8.20
2023-01-05T22:40:04.085Z,8.25
2023-01-05T22:42:32.249Z,8.29
2023-01-05T22:45:00.463Z,8.35
2023-01-05T22:47:28.636Z,8.31
2023-01-05T22:49:58.058Z,8.31
2023-01-05T22:52:26.223Z,8.37
2023-01-05T22:54:54.278Z,8.38
2023-01-05T22:57:22.407Z,8.38
2023-01-05T22:59:50.601Z,8.25
2023-01-05T23:02:19.211Z,7.93
2023-01-05T23:04:47.459Z,7.72
2023-01-05T23:07:20.876Z,7.84
2023-01-05T23:09:49.366Z,7.94
2023-01-05T23:12:17.647Z,7.76
2023-01-05T23:14:45.837Z,7.80
2023-01-05T23:17:14.007Z,7.79
2023-01-05T23:19:42.076Z,7.84
2023-01-05T23:22:11.582Z,7.71
2023-01-05T23:24:41.205Z,7.72
2023-01-05T23:27:09.541Z,7.61
2023-01-05T23:29:38.049Z,7.59
2023-01-05T23:32:06.418Z,7.70
2023-01-05T23:34:34.531Z,7.68
2023-01-05T23:37:03.316Z,7.81
2023-01-05T23:39:31.443Z,7.89
2023-01-05T23:42:00.934Z,7.96
2023-01-05T23:44:29.709Z,8.03
2023-01-05T23:46:57.885Z,8.09
2023-01-05T23:49:27.588Z,8.09
2023-01-05T23:51:55.686Z,8.09
2023-01-05T23:54:23.781Z,8.08
2023-01-05T23:56:51.941Z,8.08
2023-01-05T23:59:21.409Z,8.07
